Time;durP1;ratioP1;P1;durP2;ratioP2;P2;SDS_P1;SDS_P2;PMS_P1;PMS_P2;Temp;Humidity;BMP_temperature;BMP_pressure;BME280_temperature;BME280_humidity;BME280_pressure;Samples;Min_cycle;Max_cycle;Signal;HPM_P1;HPM_P2
2021/03/27 00:00:28;;;;;;;2.00;1.83;;;13.70;99.90;;;;;;4987799;28;20247;-69
2021/03/27 00:03:04;;;;;;;2.47;1.73;;;13.60;99.90;;;;;;4996917;28;20215;-70
2021/03/27 00:05:39;;;;;;;2.45;1.98;;;13.60;99.90;;;;;;5001434;28;20193;-69
2021/03/27 00:08:15;;;;;;;2.60;2.30;;;13.60;99.90;;;;;;4989319;28;20204;-69
2021/03/27 00:10:50;;;;;;;1.92;1.75;;;13.60;99.90;;;;;;4990476;28;20216;-68
2021/03/27 00:13:44;;;;;;;2.42;2.22;;;13.60;99.90;;;;;;4990618;28;20226;-69
2021/03/27 00:16:20;;;;;;;2.63;1.80;;;13.60;99.90;;;;;;4999547;28;20200;-69
2021/03/27 00:18:57;;;;;;;2.00;1.80;;;13.60;99.90;;;;;;5007701;28;20237;-69
2021/03/27 00:21:43;;;;;;;2.03;1.83;;;13.60;99.90;;;;;;5010002;28;20200;-68
2021/03/27 00:24:14;;;;;;;6.25;1.77;;;13.60;99.90;;;;;;4994721;28;20221;-70
2021/03/27 00:26:44;;;;;;;2.65;1.88;;;13.60;99.90;;;;;;4990553;28;20200;-69
2021/03/27 00:29:16;;;;;;;2.03;1.50;;;13.60;99.90;;;;;;4990468;28;20538;-70
2021/03/27 00:31:46;;;;;;;2.30;1.70;;;13.60;99.90;;;;;;4991146;28;20221;-68
2021/03/27 00:34:16;;;;;;;2.10;1.80;;;13.60;99.90;;;;;;4990902;28;20236;-68
2021/03/27 00:36:45;;;;;;;3.00;2.50;;;13.60;99.90;;;;;;4990313;28;20219;-68
2021/03/27 00:39:15;;;;;;;2.75;2.47;;;13.60;99.90;;;;;;4992519;28;20607;-69
2021/03/27 00:41:47;;;;;;;2.00;1.77;;;13.60;99.90;;;;;;5000600;28;20193;-69
2021/03/27 00:44:15;;;;;;;4.05;2.63;;;13.60;99.90;;;;;;4992625;28;20300;-68
2021/03/27 00:46:45;;;;;;;2.35;1.88;;;13.60;99.90;;;;;;4990815;28;20213;-69
2021/03/27 00:49:17;;;;;;;3.08;2.88;;;13.60;99.90;;;;;;4992373;28;20196;-69
2021/03/27 00:51:49;;;;;;;3.15;2.85;;;13.60;99.90;;;;;;5005498;28;20291;-69
2021/03/27 00:54:25;;;;;;;3.05;2.60;;;13.50;99.90;;;;;;4990688;28;20197;-69
2021/03/27 00:57:00;;;;;;;3.80;2.83;;;13.50;99.90;;;;;;4990914;28;20783;-68
2021/03/27 00:59:29;;;;;;;3.10;2.40;;;13.50;99.90;;;;;;4997964;28;20204;-69
2021/03/27 01:01:58;;;;;;;3.45;3.15;;;13.50;99.90;;;;;;4993350;28;20216;-69
2021/03/27 01:04:28;;;;;;;3.50;3.17;;;13.50;99.90;;;;;;4996174;28;20951;-69
2021/03/27 01:06:57;;;;;;;3.83;2.38;;;13.40;99.90;;;;;;5001299;28;20208;-69
2021/03/27 01:09:28;;;;;;;2.80;2.50;;;13.50;99.90;;;;;;5008017;28;20673;-69
2021/03/27 01:12:00;;;;;;;2.88;2.30;;;13.40;99.90;;;;;;5001569;28;20204;-69
2021/03/27 01:14:29;;;;;;;4.75;3.03;;;13.40;99.90;;;;;;5009455;28;20513;-69
2021/03/27 01:17:00;;;;;;;2.63;2.10;;;13.40;99.90;;;;;;5010156;28;20204;-68
2021/03/27 01:19:32;;;;;;;2.35;2.03;;;13.40;99.90;;;;;;5005909;28;20201;-68
2021/03/27 01:22:02;;;;;;;3.20;2.20;;;13.40;99.90;;;;;;4998418;28;20230;-68
2021/03/27 01:24:30;;;;;;;2.60;2.40;;;13.40;99.90;;;;;;4990029;28;20656;-69
2021/03/27 01:26:59;;;;;;;3.10;2.15;;;13.40;99.90;;;;;;4990121;28;20205;-69
2021/03/27 01:29:30;;;;;;;2.38;2.17;;;13.30;99.90;;;;;;5008642;28;20525;-69
2021/03/27 01:32:07;;;;;;;1.95;1.73;;;13.30;99.90;;;;;;4989759;28;20553;-68
2021/03/27 01:34:37;;;;;;;1.80;1.70;;;13.30;99.90;;;;;;4990123;28;20204;-68
2021/03/27 01:37:12;;;;;;;2.10;1.60;;;13.30;99.90;;;;;;4990169;28;20189;-69
2021/03/27 01:39:46;;;;;;;2.47;1.30;;;13.30;99.90;;;;;;4990062;28;20212;-69
2021/03/27 01:42:17;;;;;;;1.80;1.65;;;13.30;99.90;;;;;;4995948;28;20218;-69
2021/03/27 01:45:12;;;;;;;1.70;1.48;;;13.20;99.90;;;;;;4989993;28;20197;-68
2021/03/27 01:47:45;;;;;;;1.38;1.27;;;13.20;99.90;;;;;;4989753;28;20192;-68
2021/03/27 01:50:23;;;;;;;1.40;1.30;;;13.20;99.90;;;;;;4989992;28;20197;-68
2021/03/27 01:53:10;;;;;;;1.48;1.15;;;13.20;99.90;;;;;;4989887;28;20210;-68
2021/03/27 01:55:47;;;;;;;1.73;1.50;;;13.20;99.90;;;;;;4989830;28;20193;-69
2021/03/27 01:58:20;;;;;;;2.00;1.38;;;13.10;99.90;;;;;;4990058;28;20238;-69
2021/03/27 02:00:50;;;;;;;1.20;1.10;;;13.20;99.90;;;;;;4994009;28;20196;-69
2021/03/27 02:03:22;;;;;;;1.60;1.35;;;13.20;99.90;;;;;;4993925;28;20266;-68
2021/03/27 02:05:55;;;;;;;1.30;1.15;;;13.10;99.90;;;;;;4989425;28;20216;-68
2021/03/27 02:08:36;;;;;;;1.25;1.13;;;13.10;99.90;;;;;;4989609;28;20212;-68
2021/03/27 02:11:07;;;;;;;1.20;1.10;;;13.10;99.90;;;;;;4992702;28;20193;-69
2021/03/27 02:13:41;;;;;;;1.65;1.40;;;13.00;99.90;;;;;;4992379;28;20196;-69
2021/03/27 02:16:16;;;;;;;3.88;3.58;;;13.00;99.90;;;;;;4997915;28;20617;-69
2021/03/27 02:18:55;;;;;;;1.80;1.50;;;13.00;99.90;;;;;;5000279;28;20200;-69
2021/03/27 02:21:38;;;;;;;1.83;1.40;;;13.00;99.90;;;;;;4995788;28;20209;-69
2021/03/27 02:24:17;;;;;;;1.88;1.60;;;13.00;99.90;;;;;;4996171;28;20927;-69
2021/03/27 02:27:04;;;;;;;1.50;1.40;;;13.00;99.90;;;;;;4996284;28;20221;-69
2021/03/27 02:29:56;;;;;;;2.13;1.85;;;12.90;99.90;;;;;;4997253;28;20623;-69
2021/03/27 02:32:30;;;;;;;2.33;2.13;;;12.90;99.90;;;;;;4994571;28;20209;-69
2021/03/27 02:35:06;;;;;;;2.83;2.22;;;12.90;99.90;;;;;;4997813;28;20722;-68
2021/03/27 02:37:37;;;;;;;2.25;2.15;;;12.90;99.90;;;;;;5001431;28;20203;-69
2021/03/27 02:40:10;;;;;;;2.88;1.63;;;12.90;99.90;;;;;;4998666;28;20216;-69
2021/03/27 02:42:50;;;;;;;3.75;1.80;;;12.80;99.90;;;;;;4988798;28;20196;-69
2021/03/27 02:45:21;;;;;;;2.10;1.85;;;12.80;99.90;;;;;;4993828;28;20202;-69
2021/03/27 02:47:59;;;;;;;2.25;2.00;;;12.80;99.90;;;;;;4997743;28;20211;-69
2021/03/27 02:50:36;;;;;;;3.45;2.28;;;12.80;99.90;;;;;;4992146;28;20200;-69
2021/03/27 02:53:11;;;;;;;2.42;1.90;;;12.80;99.90;;;;;;4994456;28;20204;-71
2021/03/27 02:55:45;;;;;;;2.63;2.42;;;12.70;99.90;;;;;;4998357;28;20204;-68
2021/03/27 02:58:19;;;;;;;4.20;2.53;;;12.70;99.90;;;;;;4997516;28;20208;-68
2021/03/27 03:01:00;;;;;;;3.42;2.35;;;12.70;99.90;;;;;;4995897;28;20265;-68
2021/03/27 03:03:34;;;;;;;2.63;2.42;;;12.70;99.90;;;;;;4996387;28;20227;-70
2021/03/27 03:06:16;;;;;;;2.67;2.47;;;12.70;99.90;;;;;;4999245;28;20212;-68
2021/03/27 03:08:48;;;;;;;3.95;2.60;;;12.70;99.90;;;;;;4993534;28;20197;-68
2021/03/27 03:11:22;;;;;;;3.45;2.63;;;12.60;99.90;;;;;;4998749;28;20208;-69
2021/03/27 03:13:55;;;;;;;3.33;3.03;;;12.60;99.90;;;;;;4991247;28;20191;-71
2021/03/27 03:16:30;;;;;;;3.30;3.08;;;12.60;99.90;;;;;;4997798;28;20196;-70
2021/03/27 03:19:03;;;;;;;3.22;2.92;;;12.60;99.90;;;;;;4997557;28;20200;-69
2021/03/27 03:21:35;;;;;;;3.35;2.80;;;12.60;99.90;;;;;;4999453;28;20273;-69
2021/03/27 03:24:14;;;;;;;3.22;2.97;;;12.50;99.90;;;;;;5000038;28;20232;-69
2021/03/27 03:26:58;;;;;;;4.82;3.65;;;12.50;99.90;;;;;;4999947;28;20257;-69
2021/03/27 03:29:38;;;;;;;3.65;3.35;;;12.50;99.90;;;;;;4999374;28;20576;-69
2021/03/27 03:32:11;;;;;;;6.50;3.47;;;12.50;99.90;;;;;;4995637;28;20197;-69
2021/03/27 03:34:55;;;;;;;3.88;3.42;;;12.50;99.90;;;;;;4998629;28;20204;-69
2021/03/27 03:37:28;;;;;;;3.88;2.63;;;12.50;99.90;;;;;;4999376;28;20200;-69
2021/03/27 03:40:10;;;;;;;5.75;2.85;;;12.40;99.90;;;;;;4993352;28;20215;-69
2021/03/27 03:43:03;;;;;;;3.20;3.00;;;12.40;99.90;;;;;;4998046;28;20204;-70
2021/03/27 03:46:18;;;;;;;2.95;2.67;;;12.40;99.90;;;;;;5006552;28;20196;-69
2021/03/27 03:48:57;;;;;;;9.13;4.00;;;12.30;99.90;;;;;;5009862;28;20251;-69
2021/03/27 03:51:30;;;;;;;3.55;3.08;;;12.30;99.90;;;;;;5000571;28;20201;-70
2021/03/27 03:54:17;;;;;;;3.10;2.90;;;12.30;99.90;;;;;;4999507;28;20642;-70
2021/03/27 03:56:47;;;;;;;3.67;2.95;;;12.30;99.90;;;;;;5000390;28;20573;-69
2021/03/27 03:59:27;;;;;;;3.97;2.80;;;12.30;99.90;;;;;;5000177;28;20192;-69
2021/03/27 04:01:59;;;;;;;4.32;3.90;;;12.30;99.90;;;;;;5003337;28;20207;-69
2021/03/27 04:04:29;;;;;;;4.43;3.10;;;12.30;99.90;;;;;;4998576;28;20205;-69
2021/03/27 04:07:00;;;;;;;3.35;3.10;;;12.30;99.90;;;;;;4999226;28;20213;-69
2021/03/27 04:09:30;;;;;;;3.92;3.63;;;12.20;99.90;;;;;;5003133;28;20200;-69
2021/03/27 04:12:06;;;;;;;3.92;3.63;;;12.20;99.90;;;;;;4997893;28;20204;-69
2021/03/27 04:15:03;;;;;;;3.67;3.35;;;12.20;99.90;;;;;;4994791;28;20420;-69
2021/03/27 04:17:38;;;;;;;3.45;3.15;;;12.20;99.90;;;;;;4999552;28;20205;-70
2021/03/27 04:20:10;;;;;;;6.53;4.35;;;12.10;99.90;;;;;;5000006;28;20211;-70
2021/03/27 04:22:41;;;;;;;5.15;4.30;;;12.10;99.90;;;;;;5005025;28;20706;-69
2021/03/27 04:25:28;;;;;;;4.10;3.70;;;12.10;99.90;;;;;;5000568;28;20209;-69
2021/03/27 04:28:01;;;;;;;4.65;3.63;;;12.10;99.90;;;;;;5001463;28;20212;-69
2021/03/27 04:30:36;;;;;;;4.90;4.45;;;12.10;99.90;;;;;;5001333;28;20201;-69
2021/03/27 04:33:12;;;;;;;4.10;3.78;;;12.00;99.90;;;;;;5001260;28;20202;-69
2021/03/27 04:36:03;;;;;;;7.85;4.95;;;12.00;99.90;;;;;;5002110;28;20620;-69
2021/03/27 04:38:40;;;;;;;4.28;3.85;;;12.00;99.90;;;;;;4996717;28;20204;-69
2021/03/27 04:41:20;;;;;;;6.10;4.00;;;12.00;99.90;;;;;;5004706;28;20219;-69
2021/03/27 04:43:52;;;;;;;5.78;4.93;;;11.90;99.90;;;;;;5006615;28;20215;-68
2021/03/27 04:46:26;;;;;;;6.00;4.00;;;11.90;99.90;;;;;;5001196;28;20212;-69
2021/03/27 04:48:58;;;;;;;4.00;3.70;;;11.90;99.90;;;;;;5001486;28;20216;-69
2021/03/27 04:51:43;;;;;;;5.75;4.72;;;11.90;99.90;;;;;;4999695;28;20229;-69
2021/03/27 04:54:17;;;;;;;4.28;3.97;;;11.90;99.90;;;;;;5005166;28;20521;-69
2021/03/27 04:56:51;;;;;;;4.65;4.25;;;11.80;99.90;;;;;;4999350;28;20655;-69
2021/03/27 05:02:46;;;;;;;4.95;4.55;;;11.80;99.90;;;;;;4995010;28;20700;-70
2021/03/27 05:05:22;;;;;;;5.30;4.65;;;11.80;99.90;;;;;;4997442;28;20201;-69
2021/03/27 05:07:58;;;;;;;3.72;3.42;;;11.80;99.90;;;;;;5006414;28;20686;-69
2021/03/27 05:10:35;;;;;;;7.35;4.60;;;11.70;99.90;;;;;;5000779;28;20633;-69
2021/03/27 05:13:14;;;;;;;4.40;3.97;;;11.70;99.90;;;;;;4997744;28;20195;-69
2021/03/27 05:15:49;;;;;;;5.45;3.63;;;11.70;99.90;;;;;;5001147;28;20208;-69
2021/03/27 05:18:32;;;;;;;4.57;3.72;;;11.70;99.90;;;;;;5002016;28;20208;-69
2021/03/27 05:21:07;;;;;;;5.00;3.80;;;11.70;99.90;;;;;;4997148;28;20265;-69
2021/03/27 05:23:48;;;;;;;6.72;4.30;;;11.70;99.90;;;;;;5002498;28;20276;-69
2021/03/27 05:26:21;;;;;;;7.85;4.15;;;11.60;99.90;;;;;;4993007;28;20645;-69
2021/03/27 05:29:04;;;;;;;6.40;3.35;;;11.60;99.90;;;;;;4995911;28;20207;-68
2021/03/27 05:31:36;;;;;;;4.00;3.40;;;11.60;99.90;;;;;;4996368;28;20216;-69
2021/03/27 05:34:12;;;;;;;4.40;4.00;;;11.60;99.90;;;;;;4995555;28;20691;-69
2021/03/27 05:36:52;;;;;;;6.45;4.28;;;11.60;99.90;;;;;;4996706;28;20249;-69
2021/03/27 05:39:30;;;;;;;6.68;4.28;;;11.60;99.90;;;;;;4992760;28;20211;-69
2021/03/27 05:42:34;;;;;;;4.78;3.90;;;11.60;99.90;;;;;;4996908;28;20204;-69
2021/03/27 05:45:32;;;;;;;5.40;3.63;;;11.50;99.90;;;;;;5003069;28;20220;-69
2021/03/27 05:48:28;;;;;;;5.97;3.80;;;11.50;99.90;;;;;;4999896;28;20204;-69
2021/03/27 05:51:30;;;;;;;5.10;3.50;;;11.50;99.90;;;;;;4965621;28;20212;-68
2021/03/27 05:54:28;;;;;;;5.45;3.38;;;11.50;99.90;;;;;;4999113;28;20192;-69
2021/03/27 05:57:30;;;;;;;5.90;4.47;;;11.50;99.90;;;;;;4942066;28;20202;-68
2021/03/27 06:00:20;;;;;;;5.63;3.53;;;11.50;99.90;;;;;;5003382;28;20657;-68
2021/03/27 06:03:22;;;;;;;5.70;3.28;;;11.50;99.90;;;;;;5004104;28;20204;-68
2021/03/27 06:06:27;;;;;;;3.85;2.83;;;11.50;99.90;;;;;;5016724;28;20203;-68
2021/03/27 06:09:24;;;;;;;4.35;3.22;;;11.50;99.90;;;;;;4997631;28;20208;-69
2021/03/27 06:12:08;;;;;;;5.32;2.83;;;11.40;99.90;;;;;;4991733;28;20197;-69
2021/03/27 06:14:54;;;;;;;4.80;3.38;;;11.50;99.90;;;;;;4998777;28;20196;-69
2021/03/27 06:17:38;;;;;;;6.05;3.35;;;11.40;99.90;;;;;;5003209;28;20197;-69
2021/03/27 06:20:48;;;;;;;2.80;2.60;;;11.40;99.90;;;;;;4997224;28;20660;-69
2021/03/27 06:23:41;;;;;;;3.95;3.25;;;11.40;99.90;;;;;;4988866;28;20255;-69
2021/03/27 06:26:43;;;;;;;3.40;2.97;;;11.40;99.90;;;;;;5003618;28;20205;-69
2021/03/27 06:29:55;;;;;;;3.15;2.55;;;11.40;99.90;;;;;;4997446;28;20576;-69
2021/03/27 06:32:55;;;;;;;7.97;2.90;;;11.40;99.90;;;;;;5013127;28;20676;-69
2021/03/27 06:35:41;;;;;;;4.80;2.58;;;11.30;99.90;;;;;;5003809;28;20200;-69
2021/03/27 06:38:34;;;;;;;5.20;2.97;;;11.30;99.90;;;;;;4995649;28;20258;-69
2021/03/27 06:41:10;;;;;;;4.07;3.10;;;11.30;99.90;;;;;;4998408;28;20622;-69
2021/03/27 06:43:55;;;;;;;4.05;2.50;;;11.30;99.90;;;;;;5000037;28;20208;-69
2021/03/27 06:46:42;;;;;;;2.05;1.88;;;11.30;99.90;;;;;;5002420;28;20189;-69
2021/03/27 06:49:39;;;;;;;4.22;2.70;;;11.20;99.90;;;;;;4999759;28;20204;-70
2021/03/27 06:52:37;;;;;;;4.18;2.00;;;11.20;99.90;;;;;;5006798;28;20204;-69
2021/03/27 06:55:21;;;;;;;3.72;2.28;;;11.20;99.90;;;;;;5000504;28;20200;-69
2021/03/27 06:58:12;;;;;;;2.55;1.80;;;11.20;99.90;;;;;;5000350;28;20548;-68
2021/03/27 07:00:49;;;;;;;5.50;2.20;;;11.20;99.90;;;;;;4992852;28;20646;-70
2021/03/27 07:03:51;;;;;;;2.03;1.92;;;11.20;99.90;;;;;;5000515;28;20203;-69
2021/03/27 07:06:53;;;;;;;2.47;2.00;;;11.10;99.90;;;;;;4991018;28;20204;-69
2021/03/27 07:09:56;;;;;;;4.60;2.38;;;11.10;99.90;;;;;;5004313;28;20211;-69
2021/03/27 07:12:42;;;;;;;3.15;1.65;;;11.10;99.90;;;;;;4977197;28;20220;-69
2021/03/27 07:15:44;;;;;;;3.75;1.65;;;11.10;99.90;;;;;;4997269;28;20197;-69
2021/03/27 07:18:54;;;;;;;1.98;1.85;;;11.10;99.90;;;;;;4991259;28;20204;-69
2021/03/27 07:22:01;;;;;;;2.55;2.15;;;11.10;99.90;;;;;;4998998;28;20729;-69
2021/03/27 07:24:41;;;;;;;4.65;1.73;;;11.10;99.90;;;;;;4995659;28;20212;-69
2021/03/27 07:27:39;;;;;;;2.72;2.53;;;11.10;99.90;;;;;;4993934;28;20287;-69
2021/03/27 07:30:12;;;;;;;2.92;1.85;;;11.10;99.90;;;;;;4996065;28;20201;-69
2021/03/27 07:33:02;;;;;;;3.45;2.15;;;11.10;99.90;;;;;;4998624;28;20208;-69
2021/03/27 07:36:18;;;;;;;2.67;2.25;;;11.00;99.90;;;;;;4952310;28;20205;-69
2021/03/27 07:38:59;;;;;;;3.90;2.83;;;11.10;99.90;;;;;;4991421;28;20200;-69
2021/03/27 07:41:55;;;;;;;4.20;2.33;;;11.10;99.90;;;;;;4991282;28;20528;-69
2021/03/27 07:44:32;;;;;;;4.20;2.53;;;11.10;99.90;;;;;;4997085;28;20208;-70
2021/03/27 07:47:36;;;;;;;5.65;2.85;;;11.10;99.90;;;;;;4990722;28;20201;-70
2021/03/27 07:50:27;;;;;;;8.52;2.28;;;11.00;99.90;;;;;;4998001;28;20230;-69
2021/03/27 07:53:04;;;;;;;3.22;2.88;;;11.00;99.90;;;;;;4992388;28;20212;-70
2021/03/27 07:55:44;;;;;;;2.63;2.30;;;10.90;99.90;;;;;;4996413;28;20256;-70
2021/03/27 07:58:54;;;;;;;3.67;2.42;;;10.80;99.90;;;;;;4998881;28;20204;-70
2021/03/27 08:01:46;;;;;;;2.30;2.10;;;10.70;99.90;;;;;;4995035;28;20197;-70
2021/03/27 08:04:50;;;;;;;3.88;2.70;;;10.70;99.90;;;;;;4987650;28;20216;-69
2021/03/27 08:07:27;;;;;;;2.55;2.35;;;10.70;99.90;;;;;;4989058;28;20308;-69
2021/03/27 08:10:17;;;;;;;5.35;2.20;;;10.80;99.90;;;;;;4986504;28;20200;-70
2021/03/27 08:13:05;;;;;;;2.65;1.90;;;10.80;99.90;;;;;;4986842;28;20546;-69
2021/03/27 08:15:55;;;;;;;1.98;1.73;;;10.80;99.90;;;;;;4985887;28;20197;-69
2021/03/27 08:18:53;;;;;;;3.03;1.70;;;10.80;99.90;;;;;;4986412;28;20513;-70
2021/03/27 08:21:25;;;;;;;2.03;1.80;;;10.80;99.90;;;;;;4987663;28;20237;-70
2021/03/27 08:24:07;;;;;;;1.90;1.52;;;10.80;99.90;;;;;;4990008;28;20245;-68
2021/03/27 08:27:07;;;;;;;2.47;1.70;;;10.80;99.90;;;;;;4992005;28;20200;-71
2021/03/27 08:30:09;;;;;;;2.00;1.42;;;10.70;99.90;;;;;;4988380;28;20224;-71
2021/03/27 08:33:01;;;;;;;1.63;1.52;;;10.70;99.90;;;;;;5003933;28;20200;-71
2021/03/27 08:36:08;;;;;;;2.72;2.50;;;10.70;99.90;;;;;;4994474;28;20231;-71
2021/03/27 08:39:07;;;;;;;2.53;1.45;;;10.70;99.90;;;;;;4995992;28;20571;-71
2021/03/27 08:41:46;;;;;;;3.58;1.63;;;10.70;99.90;;;;;;5004068;28;20297;-71
2021/03/27 08:44:42;;;;;;;2.85;1.23;;;10.70;99.90;;;;;;5003621;28;20282;-71
2021/03/27 08:47:51;;;;;;;1.92;1.20;;;10.70;99.90;;;;;;4992266;28;20713;-70
2021/03/27 08:50:55;;;;;;;1.30;1.10;;;10.80;99.90;;;;;;4995138;28;20235;-70
2021/03/27 08:53:49;;;;;;;1.80;1.13;;;10.80;99.90;;;;;;4994452;28;20188;-70
2021/03/27 08:57:00;;;;;;;1.45;0.93;;;10.80;99.90;;;;;;5002176;28;20292;-71
2021/03/27 09:00:00;;;;;;;1.42;1.10;;;10.80;99.90;;;;;;4991807;28;20205;-69
2021/03/27 09:02:52;;;;;;;4.47;1.83;;;10.80;99.90;;;;;;5001908;28;20321;-70
2021/03/27 09:05:48;;;;;;;1.20;1.05;;;10.80;99.90;;;;;;5009557;28;20220;-69
2021/03/27 09:08:42;;;;;;;3.15;1.42;;;10.70;99.90;;;;;;4994736;28;20208;-69
2021/03/27 09:11:31;;;;;;;1.95;1.13;;;10.70;99.90;;;;;;5008522;28;20212;-69
2021/03/27 09:14:30;;;;;;;1.83;1.50;;;10.60;99.90;;;;;;5009604;28;20192;-68
2021/03/27 09:17:33;;;;;;;2.00;1.60;;;10.60;99.90;;;;;;4997605;28;20205;-68
2021/03/27 09:20:25;;;;;;;1.95;1.25;;;10.70;99.90;;;;;;5029995;28;20203;-69
2021/03/27 09:23:14;;;;;;;4.47;1.60;;;10.80;99.90;;;;;;4991058;28;20635;-70
2021/03/27 09:26:41;;;;;;;3.88;1.60;;;10.90;99.90;;;;;;4992462;28;20201;-70
2021/03/27 09:29:36;;;;;;;2.20;1.20;;;10.90;99.90;;;;;;4984409;28;20240;-71
2021/03/27 09:32:21;;;;;;;2.40;1.55;;;11.00;99.90;;;;;;4996476;28;20205;-70
2021/03/27 09:35:21;;;;;;;4.00;1.70;;;11.00;99.90;;;;;;4991741;28;20204;-70
2021/03/27 09:38:18;;;;;;;1.52;1.40;;;11.10;99.90;;;;;;4991202;28;20196;-70
2021/03/27 09:41:28;;;;;;;3.40;2.38;;;11.10;99.90;;;;;;5002825;28;20212;-70
2021/03/27 09:44:25;;;;;;;2.60;1.67;;;11.10;99.90;;;;;;5034921;28;20229;-71
2021/03/27 09:47:06;;;;;;;1.92;1.40;;;11.10;99.90;;;;;;4986710;28;20201;-71
2021/03/27 09:49:51;;;;;;;5.35;2.50;;;11.20;99.90;;;;;;5000278;28;20196;-70
2021/03/27 09:52:40;;;;;;;6.25;1.80;;;11.10;99.90;;;;;;4990117;28;20201;-70
2021/03/27 09:55:44;;;;;;;2.20;2.00;;;11.00;99.90;;;;;;5002375;28;20230;-71
2021/03/27 09:58:34;;;;;;;2.75;2.15;;;11.10;99.90;;;;;;4994653;28;20203;-70
2021/03/27 10:01:41;;;;;;;7.00;2.00;;;11.10;99.90;;;;;;4988665;28;20297;-70
2021/03/27 10:04:44;;;;;;;2.40;1.98;;;11.00;99.90;;;;;;5026246;28;20203;-69
2021/03/27 10:07:51;;;;;;;7.47;2.40;;;11.10;99.90;;;;;;5009878;28;20238;-70
2021/03/27 10:11:16;;;;;;;6.38;2.40;;;11.10;99.90;;;;;;4988458;28;20275;-70
2021/03/27 10:14:17;;;;;;;2.42;1.80;;;11.10;99.90;;;;;;4988455;28;20196;-70
2021/03/27 10:16:54;;;;;;;2.85;1.45;;;10.90;99.90;;;;;;4987739;28;20196;-71
2021/03/27 10:19:32;;;;;;;2.70;1.73;;;10.70;99.90;;;;;;4987812;28;20540;-70
2021/03/27 10:22:19;;;;;;;4.63;2.08;;;10.70;99.90;;;;;;4989788;28;20201;-70
2021/03/27 10:28:24;;;;;;;7.38;1.70;;;10.60;99.90;;;;;;4986624;28;20648;-70
2021/03/27 10:31:06;;;;;;;2.75;1.75;;;10.60;99.90;;;;;;4989390;28;20652;-69
2021/03/27 10:33:42;;;;;;;1.80;1.30;;;10.50;99.90;;;;;;4990356;28;20215;-69
2021/03/27 10:36:37;;;;;;;2.80;1.52;;;10.50;99.90;;;;;;4998930;28;20212;-69
2021/03/27 10:39:17;;;;;;;2.10;1.17;;;10.50;99.90;;;;;;4988360;28;20945;-71
2021/03/27 10:42:40;;;;;;;2.97;1.48;;;10.50;99.90;;;;;;4987844;28;20214;-70
2021/03/27 10:45:29;;;;;;;2.83;1.30;;;10.60;99.90;;;;;;5006544;28;20232;-71
2021/03/27 10:48:26;;;;;;;1.48;1.10;;;10.60;99.90;;;;;;5004507;28;20208;-73
2021/03/27 10:51:22;;;;;;;5.45;3.65;;;10.60;99.90;;;;;;4988462;28;20201;-71
2021/03/27 10:54:06;;;;;;;1.10;0.80;;;10.60;99.90;;;;;;4987324;28;20694;-71
2021/03/27 10:57:01;;;;;;;1.85;0.90;;;10.60;99.90;;;;;;4998793;28;20354;-71
2021/03/27 10:59:42;;;;;;;1.50;1.10;;;10.60;99.90;;;;;;4976199;28;20216;-68
2021/03/27 11:02:50;;;;;;;2.58;1.33;;;10.50;99.90;;;;;;4967910;28;20214;-69
2021/03/27 11:05:54;;;;;;;5.28;1.35;;;10.60;99.90;;;;;;4977685;28;20229;-71
2021/03/27 11:09:05;;;;;;;2.38;0.95;;;10.50;99.90;;;;;;4970695;28;20205;-71
2021/03/27 11:12:19;;;;;;;1.95;1.23;;;10.60;99.90;;;;;;4971864;28;20197;-72
2021/03/27 11:15:18;;;;;;;2.00;1.50;;;10.60;99.90;;;;;;4997604;28;20200;-69
2021/03/27 11:18:18;;;;;;;1.55;1.35;;;10.60;99.90;;;;;;4970621;28;20292;-69
2021/03/27 11:21:11;;;;;;;1.38;1.17;;;10.60;99.90;;;;;;4984348;28;20196;-70
2021/03/27 11:24:00;;;;;;;2.20;1.17;;;10.60;99.90;;;;;;4967608;28;20234;-71
2021/03/27 11:26:43;;;;;;;3.55;1.05;;;10.60;99.90;;;;;;4970255;28;20600;-71
2021/03/27 11:29:33;;;;;;;3.72;1.50;;;10.60;99.90;;;;;;4977262;28;20205;-69
2021/03/27 11:32:11;;;;;;;3.15;1.58;;;10.60;99.90;;;;;;4975044;28;20205;-69
2021/03/27 11:34:47;;;;;;;2.72;1.10;;;10.60;99.90;;;;;;4969750;28;20209;-70
2021/03/27 11:37:47;;;;;;;2.30;1.35;;;10.60;99.90;;;;;;4968533;28;20216;-69
2021/03/27 11:40:31;;;;;;;4.78;1.60;;;10.60;99.90;;;;;;4980527;28;20212;-70
2021/03/27 11:43:21;;;;;;;2.80;1.50;;;10.50;99.90;;;;;;4968216;28;20201;-69
2021/03/27 11:45:52;;;;;;;1.80;1.25;;;10.60;99.90;;;;;;4969131;28;20700;-69
2021/03/27 11:48:27;;;;;;;3.08;1.30;;;10.60;99.90;;;;;;4970523;28;20209;-69
2021/03/27 11:51:02;;;;;;;2.88;1.17;;;10.60;99.90;;;;;;4987562;28;20200;-69
2021/03/27 11:54:28;;;;;;;2.95;1.45;;;10.70;99.90;;;;;;4974666;28;20633;-69
2021/03/27 11:57:45;;;;;;;4.30;1.27;;;10.70;99.90;;;;;;4971356;28;20209;-69
2021/03/27 12:06:39;;;;;;;2.55;1.58;;;10.80;99.90;;;;;;4970003;28;20202;-68
2021/03/27 12:10:04;;;;;;;3.47;1.50;;;10.80;99.90;;;;;;4970969;28;20209;-69
2021/03/27 12:12:54;;;;;;;5.05;1.20;;;10.70;99.90;;;;;;4970830;28;20212;-69
2021/03/27 12:15:32;;;;;;;2.92;1.30;;;10.70;99.90;;;;;;4971165;28;20197;-69
2021/03/27 12:18:12;;;;;;;5.05;2.30;;;10.70;99.90;;;;;;4983913;28;20208;-68
2021/03/27 12:20:46;;;;;;;4.75;1.63;;;10.70;99.90;;;;;;4972962;28;20209;-69
2021/03/27 12:23:28;;;;;;;1.83;1.25;;;10.70;99.90;;;;;;4973986;28;20328;-69
2021/03/27 12:26:13;;;;;;;3.20;1.40;;;10.70;99.90;;;;;;4970912;28;20208;-69
2021/03/27 12:28:52;;;;;;;3.25;1.23;;;10.70;99.90;;;;;;4971303;28;20198;-70
2021/03/27 12:31:38;;;;;;;8.20;1.95;;;10.70;99.90;;;;;;4985441;28;20261;-69
2021/03/27 12:34:12;;;;;;;3.40;1.38;;;10.70;99.90;;;;;;4977906;28;20208;-68
2021/03/27 12:36:47;;;;;;;2.75;1.50;;;10.80;99.90;;;;;;4972224;28;20244;-69
2021/03/27 12:39:35;;;;;;;2.30;1.45;;;10.80;99.90;;;;;;4971667;28;20201;-69
2021/03/27 12:42:08;;;;;;;2.25;1.35;;;10.80;99.90;;;;;;4972892;28;20213;-69
2021/03/27 12:44:42;;;;;;;2.15;1.90;;;10.80;99.90;;;;;;4971384;28;20296;-69
2021/03/27 12:47:55;;;;;;;2.38;1.52;;;10.90;99.90;;;;;;4970342;28;20554;-69
2021/03/27 12:50:30;;;;;;;5.15;1.38;;;10.80;99.90;;;;;;4970809;28;20197;-69
2021/03/27 12:53:32;;;;;;;4.07;1.70;;;10.90;99.90;;;;;;4972444;28;20242;-69
2021/03/27 12:56:15;;;;;;;2.65;1.38;;;10.80;99.90;;;;;;4979188;28;20216;-69
2021/03/27 12:58:50;;;;;;;3.17;1.65;;;10.80;99.90;;;;;;4971279;28;20202;-69
2021/03/27 13:01:32;;;;;;;1.52;1.40;;;10.80;99.90;;;;;;4971435;28;20201;-69
2021/03/27 13:04:23;;;;;;;5.18;1.15;;;10.90;99.90;;;;;;4968649;28;20308;-69
2021/03/27 13:07:14;;;;;;;1.73;1.58;;;10.90;99.90;;;;;;4977748;28;20205;-69
2021/03/27 13:10:19;;;;;;;2.13;1.20;;;10.90;99.90;;;;;;4969180;28;20194;-68
2021/03/27 13:13:07;;;;;;;3.15;1.40;;;10.90;99.90;;;;;;4970282;28;20205;-69
2021/03/27 13:15:49;;;;;;;2.00;1.45;;;10.90;99.90;;;;;;4990348;28;20943;-69
2021/03/27 13:18:41;;;;;;;2.90;1.23;;;10.90;99.90;;;;;;4974651;28;20229;-69
2021/03/27 13:21:21;;;;;;;3.55;1.60;;;10.90;99.90;;;;;;4987422;28;20205;-69
2021/03/27 13:23:53;;;;;;;3.42;1.30;;;10.90;99.90;;;;;;4978286;28;20542;-69
2021/03/27 13:26:24;;;;;;;3.70;1.40;;;10.90;99.90;;;;;;4971971;28;20201;-69
2021/03/27 13:29:01;;;;;;;3.15;1.40;;;10.90;99.90;;;;;;4984484;28;20255;-69
2021/03/27 13:31:36;;;;;;;2.53;1.70;;;10.90;99.90;;;;;;4974505;28;20603;-69
2021/03/27 13:34:10;;;;;;;3.95;1.63;;;10.90;99.90;;;;;;4978884;28;20728;-69
2021/03/27 13:36:41;;;;;;;2.15;1.15;;;10.90;99.90;;;;;;4988569;28;20224;-69
2021/03/27 13:39:26;;;;;;;3.70;1.40;;;10.90;99.90;;;;;;4976142;28;20205;-69
2021/03/27 13:42:04;;;;;;;3.38;1.55;;;10.90;99.90;;;;;;4971732;28;20237;-68
2021/03/27 13:44:50;;;;;;;2.97;1.25;;;10.90;99.90;;;;;;4970156;28;20217;-69
2021/03/27 13:47:38;;;;;;;2.85;1.30;;;11.00;99.90;;;;;;4972760;28;20704;-69
2021/03/27 13:50:24;;;;;;;3.28;1.50;;;10.90;99.90;;;;;;4971099;28;20207;-68
2021/03/27 13:53:30;;;;;;;2.50;1.17;;;11.00;99.90;;;;;;4969935;28;20197;-69
2021/03/27 13:56:07;;;;;;;2.45;1.58;;;11.00;99.90;;;;;;4969235;28;20192;-69
2021/03/27 13:58:40;;;;;;;1.83;1.27;;;11.00;99.90;;;;;;4970544;28;20201;-69
2021/03/27 14:01:15;;;;;;;8.73;1.42;;;11.00;99.90;;;;;;4974658;28;20736;-69
2021/03/27 14:04:04;;;;;;;7.65;3.75;;;11.00;99.90;;;;;;4969431;28;20228;-69
2021/03/27 14:06:36;;;;;;;2.55;1.35;;;11.10;99.90;;;;;;4969212;28;20458;-70
2021/03/27 14:09:36;;;;;;;2.95;1.73;;;11.10;99.90;;;;;;4974719;28;20228;-69
2021/03/27 14:12:07;;;;;;;3.85;1.20;;;11.10;99.90;;;;;;4966906;28;20631;-68
2021/03/27 14:14:39;;;;;;;2.88;1.33;;;11.00;99.90;;;;;;4969624;28;20198;-68
2021/03/27 14:17:20;;;;;;;1.90;1.20;;;11.10;99.90;;;;;;4973455;28;20201;-69
2021/03/27 14:20:05;;;;;;;1.55;1.10;;;11.10;99.90;;;;;;4966838;28;20262;-69
2021/03/27 14:22:45;;;;;;;2.35;1.00;;;11.00;99.90;;;;;;4970327;28;20628;-69
2021/03/27 14:25:31;;;;;;;2.83;0.90;;;11.00;99.90;;;;;;4966778;28;20733;-69
2021/03/27 14:28:14;;;;;;;3.00;1.23;;;11.00;99.90;;;;;;4968067;28;20207;-69
2021/03/27 14:30:48;;;;;;;4.90;1.35;;;11.00;99.90;;;;;;4968058;28;20600;-69